Airfield :
LOGIN :

Register | Disclaimer

   EN    FR    IT 

 










Legend :    VFR   Marginal VFR   IFR   Intensive IFR   Very Intensive IFR
Visi :
Ceiling :
>= 8 km
>= 3000ft
5 to 8 km
1000 to 3000 ft
1500m to 5 km
500 to 1000 ft
800 to 1500m
200 to 500 ft
< 800m
< 200 ft
Symbols :   Thunderstorms  Fog  Heavy snow  Heavy precipitations  Wind > 20 kt
SIGMETs :     Misc.  Thunderstorms  Icing  Turbulence  Mountain Waves  Volcanic Ashes







- Airport Elevation : 7 ft
- IATA code : VCE


LIPZ - Marco Polo Int. Venezia

CURRENT METAR :
  • 220750Z 09006KT 060V120 9999 FEW014 15/12 Q1016 NOSIG

EXPIRED METARs :
  • 220720Z 05006KT 020V080 9999 SCT014 15/12 Q1016 NOSIG
  • 220650Z 06005KT 9999 FEW015 13/10 Q1016 NOSIG
  • 220620Z 05007KT 9999 FEW018 12/09 Q1016 NOSIG
  • 220550Z 05007KT 9999 FEW018 11/08 Q1017 NOSIG
  • 220520Z 03005KT CAVOK 10/08 Q1017 NOSIG
  • 220450Z 03005KT CAVOK 09/07 Q1017 NOSIG

TAF TAF LIPZ
Valid from the 22 at 06:00 until the 23 at 12:00 UTC


220500Z 2206/2312 03008KT CAVOK
BECMG 2208/2210 14010KT
BECMG 2218/2221 08015G25KT 4000 RA BKN010
BECMG 2308/2310 04012KT 8000 NSW
No reported NOTAMs for that airfield.



MET'MAP, your aeronautical weather chart ! - Copyright ORBIFLY December 2007 - Disclaimer

ORBIFLY MET'MAP TEAM :

Programming & Development : Alexandra Zaïnal
Concept & Development : Baudouin d'Aumeries
Co-Development & Prog : Marc-Olivier Méhu
Technical & hardware support : Manuel Goepfert

Contact : metmap@orbifly.com




SOURCES & CREDITS :

   NOAA